createdAt,value
2022-10-26T00:03:01.073Z,12.80
2022-10-26T00:08:04.047Z,12.60
2022-10-26T00:13:10.821Z,11.90
2022-10-26T00:23:16.138Z,12.40
2022-10-26T00:28:18.847Z,13.10
2022-10-26T00:33:21.555Z,12.80
2022-10-26T00:38:24.722Z,12.60
2022-10-26T00:43:27.356Z,13.90
2022-10-26T00:48:34.522Z,16.10
2022-10-26T00:53:38.013Z,14.60
2022-10-26T00:58:41.156Z,14.60
2022-10-26T01:03:45.045Z,14.70
2022-10-26T01:08:48.547Z,15.20
2022-10-26T01:13:54.405Z,14.40
2022-10-26T01:19:23.438Z,15.90
2022-10-26T01:24:29.090Z,14.60
2022-10-26T01:30:05.939Z,15.60
2022-10-26T01:35:35.461Z,14.80
2022-10-26T01:40:46.570Z,15.30
2022-10-26T01:45:51.820Z,14.60
2022-10-26T01:50:57.632Z,15.50
2022-10-26T01:56:01.784Z,14.80
2022-10-26T02:01:46.242Z,14.50
2022-10-26T02:07:15.473Z,14.60
2022-10-26T02:12:52.799Z,14.10
2022-10-26T02:18:11.998Z,15.30
2022-10-26T02:23:15.494Z,14.00
2022-10-26T02:28:22.693Z,13.50
2022-10-26T02:33:30.634Z,13.30
2022-10-26T02:38:35.690Z,13.40
2022-10-26T02:43:45.039Z,8.60
2022-10-26T02:48:47.809Z,15.10
2022-10-26T02:53:50.423Z,15.00
2022-10-26T02:58:57.983Z,14.60
2022-10-26T03:04:01.096Z,14.10
2022-10-26T03:09:04.379Z,16.60
2022-10-26T03:14:07.064Z,16.70
2022-10-26T03:19:09.787Z,17.00
2022-10-26T03:24:12.480Z,13.60
2022-10-26T03:29:15.263Z,11.80
2022-10-26T03:34:17.974Z,14.80
2022-10-26T03:39:20.676Z,13.10
2022-10-26T03:44:23.645Z,15.60
2022-10-26T03:49:26.357Z,15.60
2022-10-26T03:54:29.032Z,15.10
2022-10-26T03:59:31.689Z,19.20
2022-10-26T04:04:34.447Z,12.70
2022-10-26T04:09:37.217Z,14.90
2022-10-26T04:14:39.881Z,14.10
2022-10-26T04:19:42.586Z,13.40
2022-10-26T04:24:45.320Z,12.80
2022-10-26T04:29:48.052Z,8.90
2022-10-26T04:34:50.903Z,11.60
2022-10-26T04:39:53.668Z,11.10
2022-10-26T04:44:56.544Z,10.80
2022-10-26T04:49:59.168Z,9.90
2022-10-26T04:55:06.043Z,9.30
2022-10-26T05:00:09.500Z,10.50
2022-10-26T05:05:14.273Z,10.70
2022-10-26T05:10:18.019Z,12.30
2022-10-26T05:15:21.324Z,9.50
2022-10-26T05:20:29.658Z,9.70
2022-10-26T05:25:35.578Z,11.20
2022-10-26T05:30:38.309Z,11.70
2022-10-26T05:35:41.248Z,13.30
2022-10-26T05:40:53.017Z,13.70
2022-10-26T05:45:56.059Z,13.00
2022-10-26T05:51:02.838Z,13.80
2022-10-26T06:02:08.732Z,13.80
2022-10-26T06:07:14.541Z,9.70
2022-10-26T06:12:19.626Z,22.60
2022-10-26T06:17:59.425Z,10.70
2022-10-26T06:23:17.348Z,7.80
2022-10-26T06:28:45.064Z,9.50
2022-10-26T06:33:52.582Z,10.10
2022-10-26T06:39:08.965Z,10.70
2022-10-26T06:44:21.228Z,9.70
2022-10-26T06:49:41.651Z,9.50
2022-10-26T06:54:47.343Z,9.80
2022-10-26T07:00:09.308Z,8.80
2022-10-26T07:05:13.345Z,8.30
2022-10-26T07:10:25.226Z,9.10
2022-10-26T07:15:28.337Z,8.10
2022-10-26T07:20:35.408Z,8.00
2022-10-26T07:25:40.570Z,8.50
2022-10-26T07:30:43.846Z,9.50
2022-10-26T07:35:47.045Z,10.60
2022-10-26T07:40:50.661Z,9.50
2022-10-26T07:45:53.456Z,9.40
2022-10-26T07:50:56.225Z,8.40
2022-10-26T07:56:00.140Z,10.90
2022-10-26T08:01:11.713Z,10.20
2022-10-26T08:06:14.784Z,10.70
2022-10-26T08:11:18.152Z,11.80
2022-10-26T08:16:22.263Z,11.50
2022-10-26T08:21:36.067Z,10.80
2022-10-26T08:26:43.166Z,11.60
2022-10-26T08:31:48.841Z,9.20
2022-10-26T08:36:54.062Z,8.40
2022-10-26T08:42:05.725Z,8.10
2022-10-26T08:52:32.895Z,6.30
2022-10-26T08:57:39.663Z,6.70
2022-10-26T09:02:42.404Z,6.90
2022-10-26T09:07:57.407Z,6.40
2022-10-26T09:13:24.869Z,6.60
2022-10-26T09:24:15.843Z,8.50
2022-10-26T09:29:21.339Z,7.70
2022-10-26T09:34:30.106Z,7.00
2022-10-26T09:39:39.590Z,7.80
2022-10-26T09:45:01.599Z,8.70
2022-10-26T09:50:54.152Z,9.30
2022-10-26T09:56:13.218Z,7.00
2022-10-26T10:01:35.532Z,8.50
2022-10-26T10:06:41.411Z,6.80
2022-10-26T10:11:56.921Z,6.10
2022-10-26T10:17:08.627Z,7.40
2022-10-26T10:22:22.500Z,7.40
2022-10-26T10:27:27.741Z,7.60
2022-10-26T10:32:38.640Z,8.40
2022-10-26T10:38:01.031Z,6.50
2022-10-26T10:43:14.340Z,8.70
2022-10-26T10:48:23.389Z,8.20
2022-10-26T10:53:31.448Z,8.50
2022-10-26T10:58:44.197Z,9.10
2022-10-26T11:09:24.310Z,7.70
2022-10-26T11:14:33.276Z,9.40
2022-10-26T11:19:47.483Z,8.20
2022-10-26T11:25:13.505Z,7.20
2022-10-26T11:30:25.759Z,9.00
2022-10-26T11:35:32.353Z,7.30
2022-10-26T11:40:40.913Z,9.50
2022-10-26T11:45:48.006Z,8.40
2022-10-26T11:50:54.395Z,8.90
2022-10-26T12:01:09.413Z,11.10
2022-10-26T12:06:15.393Z,5.50
2022-10-26T12:11:36.312Z,10.40
2022-10-26T12:17:07.253Z,8.80
2022-10-26T12:22:14.103Z,10.90
2022-10-26T12:27:35.416Z,12.20
2022-10-26T12:32:40.309Z,9.60
2022-10-26T12:37:48.495Z,9.70
2022-10-26T12:42:53.942Z,11.40
2022-10-26T12:48:34.675Z,12.70
2022-10-26T12:53:45.808Z,11.00
2022-10-26T12:59:04.991Z,10.40
2022-10-26T13:04:25.530Z,10.30
2022-10-26T13:09:33.511Z,9.90
2022-10-26T13:14:55.626Z,8.50
2022-10-26T13:20:02.640Z,12.30
2022-10-26T13:25:06.536Z,13.90
2022-10-26T13:30:09.211Z,13.40
2022-10-26T13:35:13.741Z,15.20
2022-10-26T13:40:19.641Z,14.50
2022-10-26T13:45:29.706Z,14.50
2022-10-26T13:51:04.408Z,17.90
2022-10-26T13:56:28.486Z,16.80
2022-10-26T14:01:31.735Z,15.60
2022-10-26T14:06:39.512Z,13.30
2022-10-26T14:11:59.222Z,13.40
2022-10-26T14:17:05.409Z,14.40
2022-10-26T14:22:08.256Z,12.80
2022-10-26T14:27:19.190Z,12.50
2022-10-26T14:32:22.988Z,12.10
2022-10-26T14:37:54.250Z,12.70
2022-10-26T14:43:03.777Z,12.10
2022-10-26T14:48:07.780Z,12.40
2022-10-26T14:53:20.019Z,12.20
2022-10-26T14:58:34.097Z,12.90
2022-10-26T15:03:36.846Z,14.00
2022-10-26T15:08:55.945Z,12.70
2022-10-26T15:14:01.499Z,12.40
2022-10-26T15:19:11.079Z,12.80
2022-10-26T15:24:22.147Z,12.30
2022-10-26T15:29:38.680Z,10.70
2022-10-26T15:34:41.455Z,15.10
2022-10-26T15:39:44.154Z,13.20
2022-10-26T15:44:46.883Z,14.40
2022-10-26T15:49:49.568Z,14.30
2022-10-26T15:54:52.245Z,14.40
2022-10-26T15:59:54.915Z,14.80
2022-10-26T16:04:57.637Z,14.60
2022-10-26T16:10:00.555Z,15.50
2022-10-26T16:15:05.879Z,17.90
2022-10-26T16:20:14.670Z,16.10
2022-10-26T16:25:20.122Z,14.80
2022-10-26T16:30:26.990Z,15.20
2022-10-26T16:35:32.372Z,16.70
2022-10-26T16:40:35.149Z,15.10
2022-10-26T16:45:41.021Z,14.80
2022-10-26T16:50:43.774Z,16.10
2022-10-26T16:55:46.548Z,15.90
2022-10-26T17:00:54.979Z,15.80
2022-10-26T17:05:59.867Z,11.50
2022-10-26T17:11:08.965Z,16.70
2022-10-26T17:16:21.474Z,12.50
2022-10-26T17:21:34.510Z,17.10
2022-10-26T17:26:37.535Z,16.80
2022-10-26T17:31:40.335Z,16.80
2022-10-26T17:36:43.150Z,18.30
2022-10-26T17:41:45.899Z,17.00
2022-10-26T17:46:48.582Z,17.30
2022-10-26T17:51:51.407Z,17.20
2022-10-26T17:56:54.089Z,17.10
2022-10-26T18:01:57.074Z,17.50
2022-10-26T18:06:59.914Z,17.50
2022-10-26T18:12:02.741Z,17.80
2022-10-26T18:17:05.436Z,19.10
2022-10-26T18:22:08.142Z,19.30
2022-10-26T18:27:10.870Z,21.00
2022-10-26T18:32:13.612Z,19.90
2022-10-26T18:37:16.302Z,19.70
2022-10-26T18:42:18.993Z,18.00
2022-10-26T18:47:21.661Z,16.30
2022-10-26T18:52:27.254Z,17.10
2022-10-26T18:57:30.075Z,14.90
2022-10-26T19:02:32.790Z,17.50
2022-10-26T19:07:38.022Z,17.90
2022-10-26T19:12:40.706Z,16.90
2022-10-26T19:17:43.452Z,17.40
2022-10-26T19:22:46.182Z,17.90
2022-10-26T19:27:49.223Z,17.80
2022-10-26T19:32:52.771Z,14.90
2022-10-26T19:37:55.866Z,15.10
2022-10-26T19:42:59.168Z,17.50
2022-10-26T19:48:01.859Z,18.20
2022-10-26T19:53:04.565Z,15.90
2022-10-26T19:58:07.275Z,17.30
2022-10-26T20:03:11.859Z,16.80
2022-10-26T20:08:14.546Z,17.60
2022-10-26T20:13:17.240Z,19.90
2022-10-26T20:18:21.295Z,25.90
2022-10-26T20:23:24.615Z,23.20
2022-10-26T20:28:27.397Z,20.90
2022-10-26T20:33:30.156Z,19.10
2022-10-26T20:38:33.177Z,19.60
2022-10-26T20:43:39.462Z,19.90
2022-10-26T20:48:42.920Z,18.70
2022-10-26T20:53:52.754Z,18.10
2022-10-26T20:58:58.960Z,20.00
2022-10-26T21:04:03.525Z,20.20
2022-10-26T21:09:07.671Z,20.30
2022-10-26T21:14:10.356Z,17.90
2022-10-26T21:19:13.853Z,18.90
2022-10-26T21:24:16.649Z,17.10
2022-10-26T21:29:19.371Z,18.20
2022-10-26T21:34:22.090Z,18.40
2022-10-26T21:39:24.785Z,17.70
2022-10-26T21:44:42.776Z,18.50
2022-10-26T21:49:45.562Z,19.50
2022-10-26T21:54:48.279Z,18.40
2022-10-26T21:59:51.216Z,19.00
2022-10-26T22:04:54.030Z,19.00
2022-10-26T22:10:10.231Z,20.60
2022-10-26T22:15:13.901Z,20.20
2022-10-26T22:20:16.687Z,19.50
2022-10-26T22:25:19.391Z,20.50
2022-10-26T22:30:22.099Z,20.50
2022-10-26T22:35:29.582Z,21.60
2022-10-26T22:40:32.831Z,20.80
2022-10-26T22:45:35.508Z,20.70
2022-10-26T22:50:38.902Z,18.80
2022-10-26T22:55:42.207Z,19.40
2022-10-26T23:00:44.965Z,20.10
2022-10-26T23:05:48.448Z,21.50
2022-10-26T23:10:51.228Z,20.10
2022-10-26T23:15:53.952Z,19.00
2022-10-26T23:20:56.616Z,19.20
2022-10-26T23:26:04.703Z,20.00
2022-10-26T23:31:08.136Z,19.20
2022-10-26T23:36:11.313Z,20.70
2022-10-26T23:41:14.587Z,21.10
2022-10-26T23:46:17.385Z,20.10
2022-10-26T23:51:20.166Z,20.10
2022-10-26T23:56:23.027Z,20.90
